sensor_id;sensor_type;location;lat;lon;timestamp;pressure;altitude;pressure_sealevel;temperature;humidity
46846;BME280;33947;46.804;134.252;2023-03-31T00:01:27;101042.81;;;9.05;40.23
46846;BME280;33947;46.804;134.252;2023-03-31T00:04:32;101056.72;;;8.41;40.40
46846;BME280;33947;46.804;134.252;2023-03-31T00:07:37;101055.09;;;8.24;41.28
46846;BME280;33947;46.804;134.252;2023-03-31T00:10:45;101048.56;;;8.64;39.35
46846;BME280;33947;46.804;134.252;2023-03-31T00:13:50;101053.66;;;8.83;38.08
46846;BME280;33947;46.804;134.252;2023-03-31T00:16:54;101071.06;;;8.17;37.06
46846;BME280;33947;46.804;134.252;2023-03-31T00:19:59;101027.94;;;8.02;35.63
46846;BME280;33947;46.804;134.252;2023-03-31T00:23:06;101072.22;;;8.81;34.21
46846;BME280;33947;46.804;134.252;2023-03-31T00:26:12;101077.41;;;8.92;34.38
46846;BME280;33947;46.804;134.252;2023-03-31T00:29:17;101078.56;;;9.41;35.01
46846;BME280;33947;46.804;134.252;2023-03-31T00:32:21;101095.25;;;8.76;33.83
46846;BME280;33947;46.804;134.252;2023-03-31T00:35:26;101108.75;;;8.45;32.92
46846;BME280;33947;46.804;134.252;2023-03-31T00:38:31;101104.31;;;8.50;33.99
46846;BME280;33947;46.804;134.252;2023-03-31T00:41:37;101117.84;;;9.11;32.29
46846;BME280;33947;46.804;134.252;2023-03-31T00:48:19;101127.19;;;9.40;32.76
46846;BME280;33947;46.804;134.252;2023-03-31T00:51:27;101135.56;;;9.03;31.22
46846;BME280;33947;46.804;134.252;2023-03-31T00:54:33;101112.22;;;9.36;32.13
46846;BME280;33947;46.804;134.252;2023-03-31T00:57:40;101128.16;;;10.55;31.42
46846;BME280;33947;46.804;134.252;2023-03-31T01:00:46;101118.97;;;10.75;30.78
46846;BME280;33947;46.804;134.252;2023-03-31T01:03:57;101123.06;;;10.93;30.24
46846;BME280;33947;46.804;134.252;2023-03-31T01:07:30;101137.72;;;11.58;28.91
46846;BME280;33947;46.804;134.252;2023-03-31T01:13:58;101130.84;;;11.87;29.05
46846;BME280;33947;46.804;134.252;2023-03-31T01:17:03;101143.16;;;11.93;28.56
46846;BME280;33947;46.804;134.252;2023-03-31T01:20:28;101140.50;;;12.67;28.79
46846;BME280;33947;46.804;134.252;2023-03-31T01:30:33;101151.06;;;13.05;27.49
46846;BME280;33947;46.804;134.252;2023-03-31T01:37:21;101134.47;;;14.15;26.31
46846;BME280;33947;46.804;134.252;2023-03-31T01:47:00;101140.09;;;12.83;27.96
46846;BME280;33947;46.804;134.252;2023-03-31T01:50:21;101137.84;;;13.65;26.97
46846;BME280;33947;46.804;134.252;2023-03-31T01:53:32;101146.31;;;14.35;26.91
46846;BME280;33947;46.804;134.252;2023-03-31T01:57:10;101144.41;;;14.12;26.97
46846;BME280;33947;46.804;134.252;2023-03-31T02:00:14;101136.72;;;13.09;27.58
46846;BME280;33947;46.804;134.252;2023-03-31T02:03:24;101090.25;;;13.18;28.45
46846;BME280;33947;46.804;134.252;2023-03-31T02:06:41;101105.13;;;12.26;27.20
46846;BME280;33947;46.804;134.252;2023-03-31T02:09:55;101153.84;;;12.31;27.80
46846;BME280;33947;46.804;134.252;2023-03-31T02:13:01;101139.00;;;10.43;28.95
46846;BME280;33947;46.804;134.252;2023-03-31T02:16:10;101143.38;;;10.96;29.27
46846;BME280;33947;46.804;134.252;2023-03-31T02:19:18;101141.25;;;11.15;29.14
46846;BME280;33947;46.804;134.252;2023-03-31T02:22:30;101137.44;;;10.83;29.15
46846;BME280;33947;46.804;134.252;2023-03-31T02:25:40;101138.00;;;9.92;29.70
46846;BME280;33947;46.804;134.252;2023-03-31T02:28:49;101139.28;;;10.78;29.85
46846;BME280;33947;46.804;134.252;2023-03-31T02:35:18;101138.34;;;11.70;28.78
46846;BME280;33947;46.804;134.252;2023-03-31T02:38:25;101124.34;;;11.62;29.31
46846;BME280;33947;46.804;134.252;2023-03-31T02:41:30;101125.50;;;11.48;29.25
46846;BME280;33947;46.804;134.252;2023-03-31T02:44:37;101125.88;;;11.72;30.16
46846;BME280;33947;46.804;134.252;2023-03-31T02:47:45;101132.41;;;11.58;27.99
46846;BME280;33947;46.804;134.252;2023-03-31T02:54:33;101137.13;;;11.44;29.74
46846;BME280;33947;46.804;134.252;2023-03-31T03:05:14;101140.50;;;11.52;28.48
46846;BME280;33947;46.804;134.252;2023-03-31T03:09:06;101110.00;;;11.26;28.42
46846;BME280;33947;46.804;134.252;2023-03-31T03:15:44;101139.06;;;10.90;27.53
46846;BME280;33947;46.804;134.252;2023-03-31T03:18:59;101126.50;;;11.00;29.01
46846;BME280;33947;46.804;134.252;2023-03-31T03:22:03;101117.94;;;10.31;28.92
46846;BME280;33947;46.804;134.252;2023-03-31T03:25:12;101121.13;;;9.95;29.95
46846;BME280;33947;46.804;134.252;2023-03-31T03:28:17;101108.50;;;10.12;30.44
46846;BME280;33947;46.804;134.252;2023-03-31T03:31:23;101114.13;;;9.91;30.12
46846;BME280;33947;46.804;134.252;2023-03-31T03:34:28;101077.97;;;9.85;30.44
46846;BME280;33947;46.804;134.252;2023-03-31T03:37:33;101125.16;;;10.76;29.70
46846;BME280;33947;46.804;134.252;2023-03-31T03:40:38;101069.88;;;10.46;29.81
46846;BME280;33947;46.804;134.252;2023-03-31T03:43:42;101123.22;;;9.74;29.01
46846;BME280;33947;46.804;134.252;2023-03-31T03:46:47;101116.03;;;9.14;29.17
46846;BME280;33947;46.804;134.252;2023-03-31T03:49:52;101105.00;;;8.74;29.56
46846;BME280;33947;46.804;134.252;2023-03-31T03:52:55;101106.38;;;9.08;30.65
46846;BME280;33947;46.804;134.252;2023-03-31T03:56:00;101068.66;;;9.54;30.02
46846;BME280;33947;46.804;134.252;2023-03-31T03:59:05;101091.38;;;9.74;29.08
46846;BME280;33947;46.804;134.252;2023-03-31T04:02:10;101087.72;;;9.81;29.32
46846;BME280;33947;46.804;134.252;2023-03-31T04:05:14;101090.66;;;10.19;29.82
46846;BME280;33947;46.804;134.252;2023-03-31T04:08:19;101103.41;;;10.53;29.75
46846;BME280;33947;46.804;134.252;2023-03-31T04:11:23;101092.59;;;10.64;29.68
46846;BME280;33947;46.804;134.252;2023-03-31T04:14:27;101104.69;;;10.29;28.23
46846;BME280;33947;46.804;134.252;2023-03-31T04:17:32;101100.72;;;10.00;29.61
46846;BME280;33947;46.804;134.252;2023-03-31T04:20:37;101072.91;;;10.23;29.43
46846;BME280;33947;46.804;134.252;2023-03-31T04:23:42;101097.06;;;10.62;29.10
46846;BME280;33947;46.804;134.252;2023-03-31T04:26:49;101090.81;;;10.11;28.64
46846;BME280;33947;46.804;134.252;2023-03-31T04:29:53;101098.31;;;9.84;29.18
46846;BME280;33947;46.804;134.252;2023-03-31T04:32:59;101089.38;;;9.89;29.93
46846;BME280;33947;46.804;134.252;2023-03-31T04:36:05;101081.38;;;10.48;29.44
46846;BME280;33947;46.804;134.252;2023-03-31T04:39:23;101101.81;;;10.43;29.65
46846;BME280;33947;46.804;134.252;2023-03-31T04:42:33;101090.44;;;10.33;29.61
46846;BME280;33947;46.804;134.252;2023-03-31T04:45:38;101100.97;;;10.41;29.59
46846;BME280;33947;46.804;134.252;2023-03-31T04:48:42;101091.66;;;9.54;27.64
46846;BME280;33947;46.804;134.252;2023-03-31T04:51:47;101084.81;;;9.37;28.58
46846;BME280;33947;46.804;134.252;2023-03-31T04:54:55;101083.63;;;9.60;28.17
46846;BME280;33947;46.804;134.252;2023-03-31T04:58:03;101079.72;;;9.83;27.86
46846;BME280;33947;46.804;134.252;2023-03-31T05:01:09;101074.41;;;9.84;28.63
46846;BME280;33947;46.804;134.252;2023-03-31T05:04:16;101076.03;;;9.95;28.44
46846;BME280;33947;46.804;134.252;2023-03-31T05:07:21;101075.50;;;9.71;27.64
46846;BME280;33947;46.804;134.252;2023-03-31T05:10:28;101076.91;;;9.94;27.82
46846;BME280;33947;46.804;134.252;2023-03-31T05:13:32;101056.00;;;9.74;29.07
46846;BME280;33947;46.804;134.252;2023-03-31T05:16:37;101068.44;;;10.26;28.48
46846;BME280;33947;46.804;134.252;2023-03-31T05:19:42;101085.47;;;10.13;27.63
46846;BME280;33947;46.804;134.252;2023-03-31T05:22:46;101080.63;;;10.38;27.71
46846;BME280;33947;46.804;134.252;2023-03-31T05:25:50;101073.53;;;10.40;26.68
46846;BME280;33947;46.804;134.252;2023-03-31T05:28:54;101077.44;;;10.18;26.84
46846;BME280;33947;46.804;134.252;2023-03-31T05:32:01;101078.34;;;10.17;27.64
46846;BME280;33947;46.804;134.252;2023-03-31T05:35:06;101083.66;;;10.15;27.48
46846;BME280;33947;46.804;134.252;2023-03-31T05:38:11;101074.69;;;10.22;27.80
46846;BME280;33947;46.804;134.252;2023-03-31T05:41:16;101081.47;;;10.44;26.75
46846;BME280;33947;46.804;134.252;2023-03-31T05:44:22;101078.28;;;10.20;26.15
46846;BME280;33947;46.804;134.252;2023-03-31T05:47:27;101078.66;;;9.96;27.25
46846;BME280;33947;46.804;134.252;2023-03-31T05:50:31;101081.00;;;10.15;27.48
46846;BME280;33947;46.804;134.252;2023-03-31T05:53:36;101075.41;;;10.34;26.57
46846;BME280;33947;46.804;134.252;2023-03-31T05:56:40;101048.13;;;10.24;26.75
46846;BME280;33947;46.804;134.252;2023-03-31T05:59:45;101072.50;;;10.49;26.92
46846;BME280;33947;46.804;134.252;2023-03-31T06:02:49;101053.59;;;10.66;26.90
46846;BME280;33947;46.804;134.252;2023-03-31T06:05:54;101067.16;;;10.51;26.46
46846;BME280;33947;46.804;134.252;2023-03-31T06:08:58;101061.44;;;10.21;27.30
46846;BME280;33947;46.804;134.252;2023-03-31T06:12:03;101071.69;;;10.46;26.40
46846;BME280;33947;46.804;134.252;2023-03-31T06:15:08;101066.78;;;10.19;26.74
46846;BME280;33947;46.804;134.252;2023-03-31T06:18:16;101062.81;;;10.47;25.89
46846;BME280;33947;46.804;134.252;2023-03-31T06:21:21;101062.19;;;10.29;26.41
46846;BME280;33947;46.804;134.252;2023-03-31T06:24:25;101053.88;;;10.51;26.22
46846;BME280;33947;46.804;134.252;2023-03-31T06:27:30;101026.03;;;10.20;26.36
46846;BME280;33947;46.804;134.252;2023-03-31T06:30:35;101060.38;;;10.31;26.43
46846;BME280;33947;46.804;134.252;2023-03-31T06:33:41;101077.53;;;10.11;26.84
46846;BME280;33947;46.804;134.252;2023-03-31T06:36:46;101076.53;;;10.19;26.80
46846;BME280;33947;46.804;134.252;2023-03-31T06:39:50;101078.84;;;10.37;27.14
46846;BME280;33947;46.804;134.252;2023-03-31T06:42:55;101082.19;;;10.52;27.00
46846;BME280;33947;46.804;134.252;2023-03-31T06:45:59;101070.53;;;10.07;27.53
46846;BME280;33947;46.804;134.252;2023-03-31T06:49:04;101078.16;;;10.27;27.32
46846;BME280;33947;46.804;134.252;2023-03-31T06:52:08;101073.84;;;10.20;27.29
46846;BME280;33947;46.804;134.252;2023-03-31T06:55:13;101073.25;;;10.04;26.27
46846;BME280;33947;46.804;134.252;2023-03-31T06:58:18;101075.84;;;10.07;27.29
46846;BME280;33947;46.804;134.252;2023-03-31T07:01:23;101070.09;;;10.32;27.29
46846;BME280;33947;46.804;134.252;2023-03-31T07:04:27;101062.97;;;10.36;27.08
46846;BME280;33947;46.804;134.252;2023-03-31T07:07:33;101066.47;;;10.38;27.21
46846;BME280;33947;46.804;134.252;2023-03-31T07:10:37;101064.44;;;10.54;26.97
46846;BME280;33947;46.804;134.252;2023-03-31T07:13:41;101070.03;;;10.37;27.05
46846;BME280;33947;46.804;134.252;2023-03-31T07:16:46;101072.81;;;10.31;27.00
46846;BME280;33947;46.804;134.252;2023-03-31T07:19:50;101059.28;;;10.46;27.35
46846;BME280;33947;46.804;134.252;2023-03-31T07:22:55;101065.75;;;10.30;27.25
46846;BME280;33947;46.804;134.252;2023-03-31T07:26:00;101070.66;;;9.99;27.57
46846;BME280;33947;46.804;134.252;2023-03-31T07:29:05;101084.34;;;10.28;27.58
46846;BME280;33947;46.804;134.252;2023-03-31T07:32:12;101072.88;;;10.26;27.43
46846;BME280;33947;46.804;134.252;2023-03-31T07:35:18;101081.75;;;10.25;27.58
46846;BME280;33947;46.804;134.252;2023-03-31T07:38:22;101081.91;;;10.14;27.46
46846;BME280;33947;46.804;134.252;2023-03-31T07:41:27;101059.13;;;9.99;26.91
46846;BME280;33947;46.804;134.252;2023-03-31T07:44:35;101076.00;;;9.96;27.06
46846;BME280;33947;46.804;134.252;2023-03-31T07:47:40;101087.31;;;10.09;27.47
46846;BME280;33947;46.804;134.252;2023-03-31T07:50:44;101037.91;;;9.99;27.29
46846;BME280;33947;46.804;134.252;2023-03-31T07:53:57;101071.63;;;9.94;27.31
46846;BME280;33947;46.804;134.252;2023-03-31T07:57:01;101042.91;;;9.63;27.34
46846;BME280;33947;46.804;134.252;2023-03-31T08:00:08;101094.59;;;9.95;27.66
46846;BME280;33947;46.804;134.252;2023-03-31T08:03:16;101074.25;;;9.95;28.03
46846;BME280;33947;46.804;134.252;2023-03-31T08:06:22;101093.69;;;9.97;28.24
46846;BME280;33947;46.804;134.252;2023-03-31T08:09:27;101095.75;;;9.77;28.12
46846;BME280;33947;46.804;134.252;2023-03-31T08:12:34;101091.09;;;9.93;28.44
46846;BME280;33947;46.804;134.252;2023-03-31T08:15:39;101065.81;;;10.25;27.95
46846;BME280;33947;46.804;134.252;2023-03-31T08:18:43;101081.63;;;10.33;27.67
46846;BME280;33947;46.804;134.252;2023-03-31T08:21:48;101076.13;;;9.90;27.35
46846;BME280;33947;46.804;134.252;2023-03-31T08:24:52;101100.84;;;9.92;28.19
46846;BME280;33947;46.804;134.252;2023-03-31T08:27:57;101077.22;;;9.74;27.61
46846;BME280;33947;46.804;134.252;2023-03-31T08:31:06;101100.16;;;9.79;28.01
46846;BME280;33947;46.804;134.252;2023-03-31T08:34:11;101098.66;;;9.60;28.27
46846;BME280;33947;46.804;134.252;2023-03-31T08:37:15;101092.56;;;9.51;28.47
46846;BME280;33947;46.804;134.252;2023-03-31T08:40:25;101097.81;;;9.56;28.72
46846;BME280;33947;46.804;134.252;2023-03-31T08:43:35;101113.75;;;9.56;28.62
46846;BME280;33947;46.804;134.252;2023-03-31T08:46:44;101104.38;;;9.27;28.88
46846;BME280;33947;46.804;134.252;2023-03-31T08:49:56;101081.63;;;9.07;29.02
46846;BME280;33947;46.804;134.252;2023-03-31T08:53:28;101126.66;;;9.14;28.83
46846;BME280;33947;46.804;134.252;2023-03-31T08:56:40;101134.63;;;9.07;29.05
46846;BME280;33947;46.804;134.252;2023-03-31T08:59:46;101137.41;;;8.98;29.34
46846;BME280;33947;46.804;134.252;2023-03-31T09:03:01;101141.75;;;9.02;28.96
46846;BME280;33947;46.804;134.252;2023-03-31T09:06:15;101135.81;;;8.80;29.45
46846;BME280;33947;46.804;134.252;2023-03-31T09:09:52;101144.00;;;8.55;29.57
46846;BME280;33947;46.804;134.252;2023-03-31T09:13:32;101138.75;;;8.46;29.56
46846;BME280;33947;46.804;134.252;2023-03-31T09:16:53;101140.75;;;8.19;29.78
46846;BME280;33947;46.804;134.252;2023-03-31T09:23:37;101137.41;;;7.89;30.42
46846;BME280;33947;46.804;134.252;2023-03-31T09:26:50;101130.50;;;7.61;30.85
46846;BME280;33947;46.804;134.252;2023-03-31T09:30:03;101151.69;;;7.57;30.43
46846;BME280;33947;46.804;134.252;2023-03-31T09:33:28;101153.53;;;7.30;30.86
46846;BME280;33947;46.804;134.252;2023-03-31T09:36:35;101116.66;;;6.89;31.56
46846;BME280;33947;46.804;134.252;2023-03-31T09:39:40;101136.94;;;6.89;31.32
46846;BME280;33947;46.804;134.252;2023-03-31T09:42:46;101145.72;;;6.81;31.61
46846;BME280;33947;46.804;134.252;2023-03-31T09:45:51;101136.97;;;6.67;31.34
46846;BME280;33947;46.804;134.252;2023-03-31T09:49:13;101141.38;;;6.51;31.35
46846;BME280;33947;46.804;134.252;2023-03-31T09:52:31;101146.66;;;6.40;31.47
46846;BME280;33947;46.804;134.252;2023-03-31T09:55:52;101145.75;;;6.24;31.93
46846;BME280;33947;46.804;134.252;2023-03-31T09:59:00;101092.03;;;5.72;32.21
46846;BME280;33947;46.804;134.252;2023-03-31T10:05:33;101157.09;;;5.81;33.02
46846;BME280;33947;46.804;134.252;2023-03-31T10:09:00;101164.78;;;5.28;34.46
46846;BME280;33947;46.804;134.252;2023-03-31T10:12:08;101183.97;;;5.07;34.46
46846;BME280;33947;46.804;134.252;2023-03-31T10:15:21;101189.19;;;4.98;34.59
46846;BME280;33947;46.804;134.252;2023-03-31T10:18:39;101184.63;;;4.72;36.77
46846;BME280;33947;46.804;134.252;2023-03-31T10:21:45;101203.78;;;4.54;35.49
46846;BME280;33947;46.804;134.252;2023-03-31T10:24:51;101201.94;;;4.42;35.94
46846;BME280;33947;46.804;134.252;2023-03-31T10:27:57;101195.63;;;4.24;36.45
46846;BME280;33947;46.804;134.252;2023-03-31T10:31:02;101209.44;;;4.03;37.21
46846;BME280;33947;46.804;134.252;2023-03-31T10:34:11;101202.31;;;3.93;37.39
46846;BME280;33947;46.804;134.252;2023-03-31T10:37:23;101211.13;;;3.98;37.41
46846;BME280;33947;46.804;134.252;2023-03-31T10:40:31;101202.31;;;3.94;36.79
46846;BME280;33947;46.804;134.252;2023-03-31T10:43:48;101202.16;;;3.79;38.46
46846;BME280;33947;46.804;134.252;2023-03-31T10:46:53;101214.13;;;3.53;37.98
46846;BME280;33947;46.804;134.252;2023-03-31T10:49:58;101225.38;;;3.44;38.43
46846;BME280;33947;46.804;134.252;2023-03-31T10:53:09;101230.41;;;3.29;38.81
46846;BME280;33947;46.804;134.252;2023-03-31T11:06:26;101238.84;;;3.06;40.75
46846;BME280;33947;46.804;134.252;2023-03-31T11:16:29;101244.22;;;3.15;41.09
46846;BME280;33947;46.804;134.252;2023-03-31T11:36:44;101280.13;;;2.16;44.62
46846;BME280;33947;46.804;134.252;2023-03-31T11:43:50;101272.59;;;2.34;45.67
46846;BME280;33947;46.804;134.252;2023-03-31T11:47:00;101278.13;;;2.03;44.44
46846;BME280;33947;46.804;134.252;2023-03-31T11:50:14;101271.63;;;1.84;45.46
46846;BME280;33947;46.804;134.252;2023-03-31T11:53:24;101285.69;;;1.89;45.47
46846;BME280;33947;46.804;134.252;2023-03-31T11:56:39;101293.94;;;1.66;47.42
46846;BME280;33947;46.804;134.252;2023-03-31T11:59:49;101159.91;;;0.63;46.83
46846;BME280;33947;46.804;134.252;2023-03-31T12:06:32;101295.94;;;1.00;50.74
46846;BME280;33947;46.804;134.252;2023-03-31T12:16:53;101296.63;;;1.29;47.12
46846;BME280;33947;46.804;134.252;2023-03-31T12:20:17;101297.44;;;0.92;49.33
46846;BME280;33947;46.804;134.252;2023-03-31T12:23:34;101300.66;;;1.15;47.75
46846;BME280;33947;46.804;134.252;2023-03-31T12:30:10;101282.38;;;1.17;47.58
46846;BME280;33947;46.804;134.252;2023-03-31T12:33:20;101300.63;;;0.78;49.12
46846;BME280;33947;46.804;134.252;2023-03-31T12:40:14;101298.38;;;0.59;49.68
46846;BME280;33947;46.804;134.252;2023-03-31T12:53:22;101302.03;;;0.99;49.04
46846;BME280;33947;46.804;134.252;2023-03-31T12:57:22;101231.94;;;0.17;50.90
46846;BME280;33947;46.804;134.252;2023-03-31T13:00:24;101290.81;;;0.37;50.17
46846;BME280;33947;46.804;134.252;2023-03-31T13:09:44;101294.81;;;0.23;51.40
46846;BME280;33947;46.804;134.252;2023-03-31T13:13:10;101293.88;;;0.21;52.29
46846;BME280;33947;46.804;134.252;2023-03-31T13:16:20;101247.72;;;-0.11;51.76
46846;BME280;33947;46.804;134.252;2023-03-31T13:19:32;101296.94;;;0.06;52.98
46846;BME280;33947;46.804;134.252;2023-03-31T13:22:39;101292.59;;;-0.24;53.54
46846;BME280;33947;46.804;134.252;2023-03-31T13:25:52;101289.03;;;-0.28;53.15
46846;BME280;33947;46.804;134.252;2023-03-31T13:29:23;101307.13;;;-0.34;55.33
46846;BME280;33947;46.804;134.252;2023-03-31T13:32:28;101308.50;;;-0.46;53.84
46846;BME280;33947;46.804;134.252;2023-03-31T13:35:33;101310.69;;;-0.60;53.75
46846;BME280;33947;46.804;134.252;2023-03-31T13:53:19;101324.31;;;-0.41;54.33
46846;BME280;33947;46.804;134.252;2023-03-31T14:03:05;101333.00;;;-0.40;53.96
46846;BME280;33947;46.804;134.252;2023-03-31T14:09:41;101328.16;;;-0.57;54.45
46846;BME280;33947;46.804;134.252;2023-03-31T14:16:11;101326.13;;;-0.67;54.38
46846;BME280;33947;46.804;134.252;2023-03-31T14:22:54;101329.00;;;-0.85;57.01
46846;BME280;33947;46.804;134.252;2023-03-31T14:26:42;101332.00;;;-1.00;58.28
46846;BME280;33947;46.804;134.252;2023-03-31T14:29:55;101324.84;;;-1.06;56.78
46846;BME280;33947;46.804;134.252;2023-03-31T14:33:31;101335.91;;;-0.88;56.18
46846;BME280;33947;46.804;134.252;2023-03-31T14:36:47;101346.50;;;-0.55;54.84
46846;BME280;33947;46.804;134.252;2023-03-31T14:40:00;101341.09;;;-0.33;52.95
46846;BME280;33947;46.804;134.252;2023-03-31T14:43:16;101336.09;;;-0.54;54.34
46846;BME280;33947;46.804;134.252;2023-03-31T14:46:21;101340.78;;;-0.97;55.28
46846;BME280;33947;46.804;134.252;2023-03-31T14:49:35;101362.25;;;-1.56;58.91
46846;BME280;33947;46.804;134.252;2023-03-31T14:52:46;101352.97;;;-1.48;58.19
46846;BME280;33947;46.804;134.252;2023-03-31T14:55:58;101337.59;;;-1.15;56.51
46846;BME280;33947;46.804;134.252;2023-03-31T14:59:06;101351.72;;;-1.09;56.16
46846;BME280;33947;46.804;134.252;2023-03-31T15:02:36;101347.53;;;-1.29;57.20
46846;BME280;33947;46.804;134.252;2023-03-31T15:05:40;101353.78;;;-1.24;57.14
46846;BME280;33947;46.804;134.252;2023-03-31T15:08:46;101349.06;;;-1.10;56.33
46846;BME280;33947;46.804;134.252;2023-03-31T15:12:14;101359.28;;;-1.17;58.29
46846;BME280;33947;46.804;134.252;2023-03-31T15:15:19;101364.63;;;-1.38;57.57
46846;BME280;33947;46.804;134.252;2023-03-31T15:18:26;101366.44;;;-1.35;57.50
46846;BME280;33947;46.804;134.252;2023-03-31T15:21:31;101357.50;;;-1.18;57.20
46846;BME280;33947;46.804;134.252;2023-03-31T15:24:39;101336.91;;;-1.10;55.99
46846;BME280;33947;46.804;134.252;2023-03-31T15:27:45;101350.16;;;-1.04;56.35
46846;BME280;33947;46.804;134.252;2023-03-31T15:30:51;101347.25;;;-1.37;57.25
46846;BME280;33947;46.804;134.252;2023-03-31T15:34:22;101352.34;;;-1.40;57.88
46846;BME280;33947;46.804;134.252;2023-03-31T15:37:39;101365.28;;;-1.68;59.15
46846;BME280;33947;46.804;134.252;2023-03-31T15:40:50;101340.47;;;-1.82;58.08
46846;BME280;33947;46.804;134.252;2023-03-31T15:47:50;101361.97;;;-1.88;59.63
46846;BME280;33947;46.804;134.252;2023-03-31T15:51:25;101369.44;;;-1.97;60.67
46846;BME280;33947;46.804;134.252;2023-03-31T15:54:39;101368.25;;;-2.06;60.85
46846;BME280;33947;46.804;134.252;2023-03-31T15:57:43;101363.59;;;-2.14;61.13
46846;BME280;33947;46.804;134.252;2023-03-31T16:00:51;101365.78;;;-2.02;60.80
46846;BME280;33947;46.804;134.252;2023-03-31T16:03:57;101359.25;;;-1.91;60.21
46846;BME280;33947;46.804;134.252;2023-03-31T16:07:06;101359.53;;;-1.83;59.63
46846;BME280;33947;46.804;134.252;2023-03-31T16:10:18;101368.28;;;-1.57;58.37
46846;BME280;33947;46.804;134.252;2023-03-31T16:13:25;101378.06;;;-1.51;58.06
46846;BME280;33947;46.804;134.252;2023-03-31T16:16:30;101370.91;;;-1.81;58.67
46846;BME280;33947;46.804;134.252;2023-03-31T16:19:56;101382.31;;;-2.23;62.27
46846;BME280;33947;46.804;134.252;2023-03-31T16:23:01;101380.34;;;-2.29;60.74
46846;BME280;33947;46.804;134.252;2023-03-31T16:26:07;101365.88;;;-2.45;61.05
46846;BME280;33947;46.804;134.252;2023-03-31T16:29:20;101380.25;;;-2.32;61.07
46846;BME280;33947;46.804;134.252;2023-03-31T16:32:25;101383.25;;;-2.21;60.83
46846;BME280;33947;46.804;134.252;2023-03-31T16:35:31;101379.63;;;-2.04;60.16
46846;BME280;33947;46.804;134.252;2023-03-31T16:38:36;101381.28;;;-2.06;59.84
46846;BME280;33947;46.804;134.252;2023-03-31T16:41:40;101381.66;;;-1.95;59.51
46846;BME280;33947;46.804;134.252;2023-03-31T16:44:45;101378.78;;;-2.02;59.68
46846;BME280;33947;46.804;134.252;2023-03-31T16:48:09;101379.44;;;-2.08;59.78
46846;BME280;33947;46.804;134.252;2023-03-31T16:51:19;101366.31;;;-2.55;62.35
46846;BME280;33947;46.804;134.252;2023-03-31T16:54:23;101388.94;;;-2.31;61.32
46846;BME280;33947;46.804;134.252;2023-03-31T16:57:28;101386.22;;;-2.35;61.34
46846;BME280;33947;46.804;134.252;2023-03-31T17:00:33;101393.41;;;-2.50;61.76
46846;BME280;33947;46.804;134.252;2023-03-31T17:03:38;101386.53;;;-2.71;62.22
46846;BME280;33947;46.804;134.252;2023-03-31T17:06:44;101396.91;;;-2.71;62.33
46846;BME280;33947;46.804;134.252;2023-03-31T17:09:48;101403.00;;;-2.70;62.55
46846;BME280;33947;46.804;134.252;2023-03-31T17:12:54;101404.16;;;-2.85;63.60
46846;BME280;33947;46.804;134.252;2023-03-31T17:16:04;101319.91;;;-3.10;62.55
46846;BME280;33947;46.804;134.252;2023-03-31T17:19:23;101393.34;;;-2.52;61.31
46846;BME280;33947;46.804;134.252;2023-03-31T17:22:32;101393.16;;;-2.78;62.73
46846;BME280;33947;46.804;134.252;2023-03-31T17:25:36;101379.19;;;-2.58;61.93
46846;BME280;33947;46.804;134.252;2023-03-31T17:28:41;101353.34;;;-2.33;59.77
46846;BME280;33947;46.804;134.252;2023-03-31T17:31:45;101390.59;;;-2.11;59.59
46846;BME280;33947;46.804;134.252;2023-03-31T17:34:50;101396.00;;;-2.50;61.03
46846;BME280;33947;46.804;134.252;2023-03-31T17:37:55;101394.91;;;-2.78;62.22
46846;BME280;33947;46.804;134.252;2023-03-31T17:41:08;101404.72;;;-2.92;62.81
46846;BME280;33947;46.804;134.252;2023-03-31T17:44:13;101399.97;;;-3.02;63.61
46846;BME280;33947;46.804;134.252;2023-03-31T17:47:30;101395.72;;;-3.20;64.31
46846;BME280;33947;46.804;134.252;2023-03-31T17:50:37;101418.81;;;-3.07;64.17
46846;BME280;33947;46.804;134.252;2023-03-31T17:53:45;101421.56;;;-3.03;62.74
46846;BME280;33947;46.804;134.252;2023-03-31T17:56:51;101408.41;;;-3.07;62.85
46846;BME280;33947;46.804;134.252;2023-03-31T17:59:57;101418.66;;;-3.31;65.99
46846;BME280;33947;46.804;134.252;2023-03-31T18:03:02;101401.88;;;-3.18;63.06
46846;BME280;33947;46.804;134.252;2023-03-31T18:06:08;101426.88;;;-3.22;64.04
46846;BME280;33947;46.804;134.252;2023-03-31T18:09:14;101416.00;;;-3.32;64.48
46846;BME280;33947;46.804;134.252;2023-03-31T18:12:19;101419.34;;;-3.35;65.40
46846;BME280;33947;46.804;134.252;2023-03-31T18:15:23;101425.34;;;-3.36;65.63
46846;BME280;33947;46.804;134.252;2023-03-31T18:18:28;101432.31;;;-3.35;65.40
46846;BME280;33947;46.804;134.252;2023-03-31T18:21:32;101425.88;;;-3.24;65.01
46846;BME280;33947;46.804;134.252;2023-03-31T18:24:37;101439.44;;;-3.11;63.82
46846;BME280;33947;46.804;134.252;2023-03-31T18:27:43;101437.53;;;-3.35;65.46
46846;BME280;33947;46.804;134.252;2023-03-31T18:30:49;101437.38;;;-3.38;65.41
46846;BME280;33947;46.804;134.252;2023-03-31T18:33:55;101437.09;;;-3.25;64.66
46846;BME280;33947;46.804;134.252;2023-03-31T18:37:00;101435.28;;;-3.27;64.80
46846;BME280;33947;46.804;134.252;2023-03-31T18:40:05;101433.69;;;-3.24;64.77
46846;BME280;33947;46.804;134.252;2023-03-31T18:43:10;101411.50;;;-3.37;64.73